sensor_id;sensor_type;location;lat;lon;timestamp;P1;durP1;ratioP1;P2;durP2;ratioP2
82030;SDS011;71592;52.178;4.512;2023-07-24T00:00:39;6.75;;;3.88;;
82030;SDS011;71592;52.178;4.512;2023-07-24T00:03:05;6.88;;;3.47;;
82030;SDS011;71592;52.178;4.512;2023-07-24T00:05:31;4.93;;;3.13;;
82030;SDS011;71592;52.178;4.512;2023-07-24T00:07:56;7.50;;;3.63;;
82030;SDS011;71592;52.178;4.512;2023-07-24T00:10:21;5.25;;;3.33;;
82030;SDS011;71592;52.178;4.512;2023-07-24T00:12:47;7.35;;;3.47;;
82030;SDS011;71592;52.178;4.512;2023-07-24T00:15:13;7.05;;;3.80;;
82030;SDS011;71592;52.178;4.512;2023-07-24T00:17:38;7.10;;;3.65;;
82030;SDS011;71592;52.178;4.512;2023-07-24T00:20:03;7.07;;;4.00;;
82030;SDS011;71592;52.178;4.512;2023-07-24T00:22:29;5.72;;;3.22;;
82030;SDS011;71592;52.178;4.512;2023-07-24T00:24:55;8.82;;;4.22;;
82030;SDS011;71592;52.178;4.512;2023-07-24T00:27:20;7.82;;;3.78;;
82030;SDS011;71592;52.178;4.512;2023-07-24T00:29:46;6.68;;;3.67;;
82030;SDS011;71592;52.178;4.512;2023-07-24T00:32:11;7.15;;;3.45;;
82030;SDS011;71592;52.178;4.512;2023-07-24T00:34:36;7.45;;;4.20;;
82030;SDS011;71592;52.178;4.512;2023-07-24T00:37:02;7.63;;;3.60;;
82030;SDS011;71592;52.178;4.512;2023-07-24T00:39:28;7.93;;;4.00;;
82030;SDS011;71592;52.178;4.512;2023-07-24T00:41:54;8.50;;;4.32;;
82030;SDS011;71592;52.178;4.512;2023-07-24T00:44:20;11.70;;;4.65;;
82030;SDS011;71592;52.178;4.512;2023-07-24T00:46:45;6.97;;;4.28;;
82030;SDS011;71592;52.178;4.512;2023-07-24T00:49:11;7.63;;;3.97;;
82030;SDS011;71592;52.178;4.512;2023-07-24T00:51:37;7.03;;;4.28;;
82030;SDS011;71592;52.178;4.512;2023-07-24T00:54:03;7.88;;;4.47;;
82030;SDS011;71592;52.178;4.512;2023-07-24T00:56:30;7.00;;;4.32;;
82030;SDS011;71592;52.178;4.512;2023-07-24T00:58:57;7.53;;;4.53;;
82030;SDS011;71592;52.178;4.512;2023-07-24T01:01:24;9.73;;;5.07;;
82030;SDS011;71592;52.178;4.512;2023-07-24T01:03:52;7.90;;;4.70;;
82030;SDS011;71592;52.178;4.512;2023-07-24T01:06:17;9.90;;;4.88;;
82030;SDS011;71592;52.178;4.512;2023-07-24T01:08:43;8.20;;;4.57;;
82030;SDS011;71592;52.178;4.512;2023-07-24T01:11:14;7.68;;;4.60;;
82030;SDS011;71592;52.178;4.512;2023-07-24T01:13:57;7.80;;;4.63;;
82030;SDS011;71592;52.178;4.512;2023-07-24T01:16:26;9.52;;;4.85;;
82030;SDS011;71592;52.178;4.512;2023-07-24T01:19:01;8.82;;;4.88;;
82030;SDS011;71592;52.178;4.512;2023-07-24T01:22:01;9.75;;;5.50;;
82030;SDS011;71592;52.178;4.512;2023-07-24T01:27:25;7.65;;;4.90;;
82030;SDS011;71592;52.178;4.512;2023-07-24T01:29:51;7.47;;;4.55;;
82030;SDS011;71592;52.178;4.512;2023-07-24T01:32:17;8.63;;;4.70;;
82030;SDS011;71592;52.178;4.512;2023-07-24T01:34:44;8.50;;;4.63;;
82030;SDS011;71592;52.178;4.512;2023-07-24T01:37:09;6.63;;;4.57;;
82030;SDS011;71592;52.178;4.512;2023-07-24T01:39:37;9.23;;;4.57;;
82030;SDS011;71592;52.178;4.512;2023-07-24T01:42:03;10.23;;;4.47;;
82030;SDS011;71592;52.178;4.512;2023-07-24T01:44:29;8.05;;;4.10;;
82030;SDS011;71592;52.178;4.512;2023-07-24T01:46:55;8.10;;;4.20;;
82030;SDS011;71592;52.178;4.512;2023-07-24T01:49:20;8.38;;;3.80;;
82030;SDS011;71592;52.178;4.512;2023-07-24T01:51:46;7.22;;;4.07;;
82030;SDS011;71592;52.178;4.512;2023-07-24T01:54:11;8.70;;;4.07;;
82030;SDS011;71592;52.178;4.512;2023-07-24T01:56:36;10.02;;;4.53;;
82030;SDS011;71592;52.178;4.512;2023-07-24T01:59:04;9.32;;;4.07;;
82030;SDS011;71592;52.178;4.512;2023-07-24T02:01:30;7.15;;;4.13;;
82030;SDS011;71592;52.178;4.512;2023-07-24T02:03:55;7.45;;;4.05;;
82030;SDS011;71592;52.178;4.512;2023-07-24T02:06:21;9.60;;;4.13;;
82030;SDS011;71592;52.178;4.512;2023-07-24T02:08:46;7.70;;;3.78;;
82030;SDS011;71592;52.178;4.512;2023-07-24T02:11:17;10.35;;;4.22;;
82030;SDS011;71592;52.178;4.512;2023-07-24T02:13:43;7.40;;;3.67;;
82030;SDS011;71592;52.178;4.512;2023-07-24T02:16:09;6.88;;;4.25;;
82030;SDS011;71592;52.178;4.512;2023-07-24T02:18:36;6.35;;;3.38;;
82030;SDS011;71592;52.178;4.512;2023-07-24T02:21:02;8.35;;;4.30;;
82030;SDS011;71592;52.178;4.512;2023-07-24T02:23:28;7.35;;;3.70;;
82030;SDS011;71592;52.178;4.512;2023-07-24T02:25:53;8.50;;;3.90;;
82030;SDS011;71592;52.178;4.512;2023-07-24T02:28:19;7.90;;;3.50;;
82030;SDS011;71592;52.178;4.512;2023-07-24T02:30:46;10.23;;;3.72;;
82030;SDS011;71592;52.178;4.512;2023-07-24T02:33:12;7.45;;;3.50;;
82030;SDS011;71592;52.178;4.512;2023-07-24T02:35:39;7.57;;;3.75;;
82030;SDS011;71592;52.178;4.512;2023-07-24T02:38:05;9.80;;;3.63;;
82030;SDS011;71592;52.178;4.512;2023-07-24T02:40:30;9.60;;;4.00;;
82030;SDS011;71592;52.178;4.512;2023-07-24T02:42:56;8.07;;;4.53;;
82030;SDS011;71592;52.178;4.512;2023-07-24T02:45:21;8.32;;;4.13;;
82030;SDS011;71592;52.178;4.512;2023-07-24T02:47:46;6.97;;;4.18;;
82030;SDS011;71592;52.178;4.512;2023-07-24T02:50:13;11.43;;;4.68;;
82030;SDS011;71592;52.178;4.512;2023-07-24T02:52:38;7.10;;;3.92;;
82030;SDS011;71592;52.178;4.512;2023-07-24T02:55:03;7.25;;;3.88;;
82030;SDS011;71592;52.178;4.512;2023-07-24T02:57:29;7.15;;;4.13;;
82030;SDS011;71592;52.178;4.512;2023-07-24T02:59:54;6.82;;;4.07;;
82030;SDS011;71592;52.178;4.512;2023-07-24T03:02:20;10.13;;;4.10;;
82030;SDS011;71592;52.178;4.512;2023-07-24T03:04:45;8.70;;;3.63;;
82030;SDS011;71592;52.178;4.512;2023-07-24T03:07:11;11.30;;;3.80;;
82030;SDS011;71592;52.178;4.512;2023-07-24T03:09:36;9.70;;;3.75;;
82030;SDS011;71592;52.178;4.512;2023-07-24T03:12:01;10.15;;;4.00;;
82030;SDS011;71592;52.178;4.512;2023-07-24T03:14:27;9.30;;;3.83;;
82030;SDS011;71592;52.178;4.512;2023-07-24T03:16:53;8.07;;;3.60;;
82030;SDS011;71592;52.178;4.512;2023-07-24T03:19:18;7.57;;;3.92;;
82030;SDS011;71592;52.178;4.512;2023-07-24T03:21:45;9.13;;;4.15;;
82030;SDS011;71592;52.178;4.512;2023-07-24T03:24:11;7.93;;;3.63;;
82030;SDS011;71592;52.178;4.512;2023-07-24T03:26:36;6.55;;;3.40;;
82030;SDS011;71592;52.178;4.512;2023-07-24T03:29:02;8.93;;;3.58;;
82030;SDS011;71592;52.178;4.512;2023-07-24T03:31:28;5.85;;;3.42;;
82030;SDS011;71592;52.178;4.512;2023-07-24T03:33:53;10.02;;;4.30;;
82030;SDS011;71592;52.178;4.512;2023-07-24T03:36:18;9.57;;;3.33;;
82030;SDS011;71592;52.178;4.512;2023-07-24T03:38:44;9.85;;;4.28;;
82030;SDS011;71592;52.178;4.512;2023-07-24T03:41:09;7.32;;;3.92;;
82030;SDS011;71592;52.178;4.512;2023-07-24T03:43:34;7.20;;;3.80;;
82030;SDS011;71592;52.178;4.512;2023-07-24T03:46:00;7.47;;;3.50;;
82030;SDS011;71592;52.178;4.512;2023-07-24T03:48:25;8.63;;;4.20;;
82030;SDS011;71592;52.178;4.512;2023-07-24T03:50:57;9.10;;;4.22;;
82030;SDS011;71592;52.178;4.512;2023-07-24T03:53:24;8.52;;;3.90;;
82030;SDS011;71592;52.178;4.512;2023-07-24T03:55:49;10.45;;;4.25;;
82030;SDS011;71592;52.178;4.512;2023-07-24T03:58:15;8.18;;;4.30;;
82030;SDS011;71592;52.178;4.512;2023-07-24T04:00:40;8.32;;;3.40;;
82030;SDS011;71592;52.178;4.512;2023-07-24T04:03:06;7.70;;;4.05;;
82030;SDS011;71592;52.178;4.512;2023-07-24T04:05:31;8.70;;;4.00;;
82030;SDS011;71592;52.178;4.512;2023-07-24T04:07:58;7.43;;;3.80;;
82030;SDS011;71592;52.178;4.512;2023-07-24T04:10:24;8.63;;;4.10;;
82030;SDS011;71592;52.178;4.512;2023-07-24T04:12:49;9.55;;;4.53;;
82030;SDS011;71592;52.178;4.512;2023-07-24T04:15:15;7.07;;;3.88;;
82030;SDS011;71592;52.178;4.512;2023-07-24T04:17:40;7.65;;;3.88;;
82030;SDS011;71592;52.178;4.512;2023-07-24T04:20:06;11.60;;;4.68;;
82030;SDS011;71592;52.178;4.512;2023-07-24T04:22:32;9.57;;;4.20;;
82030;SDS011;71592;52.178;4.512;2023-07-24T04:24:58;7.38;;;3.83;;
82030;SDS011;71592;52.178;4.512;2023-07-24T04:27:23;8.40;;;3.80;;
82030;SDS011;71592;52.178;4.512;2023-07-24T04:29:48;11.52;;;4.40;;
82030;SDS011;71592;52.178;4.512;2023-07-24T04:32:14;8.88;;;3.58;;
82030;SDS011;71592;52.178;4.512;2023-07-24T04:34:39;8.68;;;4.15;;
82030;SDS011;71592;52.178;4.512;2023-07-24T04:37:05;8.20;;;4.00;;
82030;SDS011;71592;52.178;4.512;2023-07-24T04:39:30;7.50;;;3.70;;
82030;SDS011;71592;52.178;4.512;2023-07-24T04:41:55;8.23;;;3.78;;
82030;SDS011;71592;52.178;4.512;2023-07-24T04:44:21;7.82;;;3.85;;
82030;SDS011;71592;52.178;4.512;2023-07-24T04:46:46;8.23;;;4.28;;
82030;SDS011;71592;52.178;4.512;2023-07-24T04:49:12;9.50;;;4.28;;
82030;SDS011;71592;52.178;4.512;2023-07-24T04:51:37;8.73;;;4.55;;
82030;SDS011;71592;52.178;4.512;2023-07-24T04:54:03;9.98;;;4.30;;
82030;SDS011;71592;52.178;4.512;2023-07-24T04:56:28;7.20;;;4.40;;
82030;SDS011;71592;52.178;4.512;2023-07-24T04:58:53;8.55;;;4.35;;
82030;SDS011;71592;52.178;4.512;2023-07-24T05:01:19;7.25;;;4.13;;
82030;SDS011;71592;52.178;4.512;2023-07-24T05:03:44;10.68;;;4.80;;
82030;SDS011;71592;52.178;4.512;2023-07-24T05:06:09;8.93;;;4.40;;
82030;SDS011;71592;52.178;4.512;2023-07-24T05:08:35;9.95;;;4.78;;
82030;SDS011;71592;52.178;4.512;2023-07-24T05:11:00;7.63;;;4.57;;
82030;SDS011;71592;52.178;4.512;2023-07-24T05:13:26;11.88;;;4.32;;
82030;SDS011;71592;52.178;4.512;2023-07-24T05:15:51;9.85;;;4.55;;
82030;SDS011;71592;52.178;4.512;2023-07-24T05:18:17;7.60;;;4.00;;
82030;SDS011;71592;52.178;4.512;2023-07-24T05:20:44;10.80;;;4.28;;
82030;SDS011;71592;52.178;4.512;2023-07-24T05:23:12;8.50;;;4.18;;
82030;SDS011;71592;52.178;4.512;2023-07-24T05:25:38;13.20;;;4.85;;
82030;SDS011;71592;52.178;4.512;2023-07-24T05:28:03;10.40;;;4.55;;
82030;SDS011;71592;52.178;4.512;2023-07-24T05:30:29;8.77;;;3.97;;
82030;SDS011;71592;52.178;4.512;2023-07-24T05:32:54;13.23;;;4.18;;
82030;SDS011;71592;52.178;4.512;2023-07-24T05:35:19;10.20;;;3.92;;
82030;SDS011;71592;52.178;4.512;2023-07-24T05:37:45;9.32;;;3.80;;
82030;SDS011;71592;52.178;4.512;2023-07-24T05:40:10;12.73;;;4.88;;
82030;SDS011;71592;52.178;4.512;2023-07-24T05:42:36;7.15;;;3.90;;
82030;SDS011;71592;52.178;4.512;2023-07-24T05:45:06;10.80;;;4.85;;
82030;SDS011;71592;52.178;4.512;2023-07-24T05:47:32;7.53;;;3.97;;
82030;SDS011;71592;52.178;4.512;2023-07-24T05:49:58;10.93;;;4.18;;
82030;SDS011;71592;52.178;4.512;2023-07-24T05:52:23;10.82;;;4.72;;
82030;SDS011;71592;52.178;4.512;2023-07-24T05:54:49;11.60;;;4.00;;
82030;SDS011;71592;52.178;4.512;2023-07-24T05:57:14;8.88;;;4.20;;
82030;SDS011;71592;52.178;4.512;2023-07-24T05:59:39;11.23;;;4.47;;
82030;SDS011;71592;52.178;4.512;2023-07-24T06:02:05;7.93;;;4.18;;
82030;SDS011;71592;52.178;4.512;2023-07-24T06:04:30;8.70;;;4.22;;
82030;SDS011;71592;52.178;4.512;2023-07-24T06:06:56;11.05;;;4.65;;
82030;SDS011;71592;52.178;4.512;2023-07-24T06:09:22;8.30;;;4.47;;
82030;SDS011;71592;52.178;4.512;2023-07-24T06:11:47;8.88;;;4.03;;
82030;SDS011;71592;52.178;4.512;2023-07-24T06:14:12;9.43;;;4.40;;
82030;SDS011;71592;52.178;4.512;2023-07-24T06:16:38;8.93;;;4.75;;
82030;SDS011;71592;52.178;4.512;2023-07-24T06:19:04;9.65;;;4.03;;
82030;SDS011;71592;52.178;4.512;2023-07-24T06:21:30;9.25;;;4.57;;
82030;SDS011;71592;52.178;4.512;2023-07-24T06:23:55;7.22;;;4.30;;
82030;SDS011;71592;52.178;4.512;2023-07-24T06:26:21;10.05;;;4.53;;
82030;SDS011;71592;52.178;4.512;2023-07-24T06:28:47;9.43;;;4.65;;
82030;SDS011;71592;52.178;4.512;2023-07-24T06:31:12;8.45;;;4.28;;
82030;SDS011;71592;52.178;4.512;2023-07-24T06:33:38;8.63;;;4.30;;
82030;SDS011;71592;52.178;4.512;2023-07-24T06:36:03;8.68;;;4.47;;
82030;SDS011;71592;52.178;4.512;2023-07-24T06:38:29;10.27;;;4.30;;
82030;SDS011;71592;52.178;4.512;2023-07-24T06:40:54;10.80;;;4.60;;
82030;SDS011;71592;52.178;4.512;2023-07-24T06:43:20;7.95;;;4.20;;
82030;SDS011;71592;52.178;4.512;2023-07-24T06:45:46;10.98;;;4.85;;
82030;SDS011;71592;52.178;4.512;2023-07-24T06:48:11;10.27;;;4.20;;
82030;SDS011;71592;52.178;4.512;2023-07-24T06:50:37;10.82;;;4.95;;
82030;SDS011;71592;52.178;4.512;2023-07-24T06:53:02;9.93;;;4.55;;
82030;SDS011;71592;52.178;4.512;2023-07-24T06:55:27;8.73;;;4.72;;
82030;SDS011;71592;52.178;4.512;2023-07-24T06:57:53;8.13;;;4.47;;
82030;SDS011;71592;52.178;4.512;2023-07-24T07:00:18;10.93;;;4.93;;
82030;SDS011;71592;52.178;4.512;2023-07-24T07:02:44;10.73;;;4.50;;
82030;SDS011;71592;52.178;4.512;2023-07-24T07:05:09;9.68;;;4.88;;
82030;SDS011;71592;52.178;4.512;2023-07-24T07:07:34;9.77;;;4.75;;
82030;SDS011;71592;52.178;4.512;2023-07-24T07:10:00;7.53;;;4.18;;
82030;SDS011;71592;52.178;4.512;2023-07-24T07:12:26;8.20;;;4.45;;
82030;SDS011;71592;52.178;4.512;2023-07-24T07:14:51;10.75;;;5.05;;
82030;SDS011;71592;52.178;4.512;2023-07-24T07:17:16;10.68;;;4.80;;
82030;SDS011;71592;52.178;4.512;2023-07-24T07:19:42;8.95;;;4.63;;
82030;SDS011;71592;52.178;4.512;2023-07-24T07:22:07;7.05;;;4.18;;
82030;SDS011;71592;52.178;4.512;2023-07-24T07:24:33;9.10;;;4.45;;
82030;SDS011;71592;52.178;4.512;2023-07-24T07:26:58;8.38;;;4.07;;
82030;SDS011;71592;52.178;4.512;2023-07-24T07:29:23;6.55;;;4.40;;
82030;SDS011;71592;52.178;4.512;2023-07-24T07:31:49;8.52;;;4.60;;
82030;SDS011;71592;52.178;4.512;2023-07-24T07:34:14;7.15;;;4.63;;
82030;SDS011;71592;52.178;4.512;2023-07-24T07:36:42;8.38;;;4.60;;
82030;SDS011;71592;52.178;4.512;2023-07-24T07:39:07;7.88;;;4.40;;
82030;SDS011;71592;52.178;4.512;2023-07-24T07:41:34;8.05;;;4.20;;
82030;SDS011;71592;52.178;4.512;2023-07-24T07:43:59;10.95;;;4.68;;
82030;SDS011;71592;52.178;4.512;2023-07-24T07:46:25;7.90;;;4.72;;
82030;SDS011;71592;52.178;4.512;2023-07-24T07:48:50;7.22;;;3.88;;
82030;SDS011;71592;52.178;4.512;2023-07-24T07:51:17;8.38;;;4.22;;
82030;SDS011;71592;52.178;4.512;2023-07-24T07:53:43;7.55;;;4.10;;
82030;SDS011;71592;52.178;4.512;2023-07-24T07:56:08;9.18;;;4.45;;
82030;SDS011;71592;52.178;4.512;2023-07-24T07:58:33;9.13;;;4.13;;
82030;SDS011;71592;52.178;4.512;2023-07-24T08:01:02;6.57;;;4.03;;
82030;SDS011;71592;52.178;4.512;2023-07-24T08:03:29;6.22;;;3.88;;
82030;SDS011;71592;52.178;4.512;2023-07-24T08:05:56;6.57;;;3.80;;
82030;SDS011;71592;52.178;4.512;2023-07-24T08:08:22;8.45;;;4.50;;
82030;SDS011;71592;52.178;4.512;2023-07-24T08:10:48;5.50;;;3.92;;
82030;SDS011;71592;52.178;4.512;2023-07-24T08:13:13;6.82;;;3.95;;
82030;SDS011;71592;52.178;4.512;2023-07-24T08:15:38;9.05;;;4.75;;
82030;SDS011;71592;52.178;4.512;2023-07-24T08:18:04;6.15;;;3.70;;
82030;SDS011;71592;52.178;4.512;2023-07-24T08:20:30;6.03;;;3.90;;
82030;SDS011;71592;52.178;4.512;2023-07-24T08:22:55;6.90;;;3.90;;
82030;SDS011;71592;52.178;4.512;2023-07-24T08:25:21;6.47;;;4.03;;
82030;SDS011;71592;52.178;4.512;2023-07-24T08:27:46;7.53;;;4.13;;
82030;SDS011;71592;52.178;4.512;2023-07-24T08:30:12;5.63;;;3.60;;
82030;SDS011;71592;52.178;4.512;2023-07-24T08:32:38;5.57;;;3.88;;
82030;SDS011;71592;52.178;4.512;2023-07-24T08:35:04;7.50;;;4.05;;
82030;SDS011;71592;52.178;4.512;2023-07-24T08:37:30;6.03;;;4.20;;
82030;SDS011;71592;52.178;4.512;2023-07-24T08:39:56;7.53;;;4.18;;
82030;SDS011;71592;52.178;4.512;2023-07-24T08:42:21;7.97;;;3.65;;
82030;SDS011;71592;52.178;4.512;2023-07-24T08:44:47;6.65;;;3.65;;
82030;SDS011;71592;52.178;4.512;2023-07-24T08:47:14;5.85;;;3.63;;
82030;SDS011;71592;52.178;4.512;2023-07-24T08:49:40;6.07;;;3.35;;
82030;SDS011;71592;52.178;4.512;2023-07-24T08:52:07;9.02;;;4.07;;
82030;SDS011;71592;52.178;4.512;2023-07-24T08:54:35;5.55;;;3.92;;
82030;SDS011;71592;52.178;4.512;2023-07-24T08:57:02;5.80;;;3.72;;
82030;SDS011;71592;52.178;4.512;2023-07-24T08:59:31;5.30;;;3.70;;
82030;SDS011;71592;52.178;4.512;2023-07-24T09:01:56;7.25;;;4.35;;
82030;SDS011;71592;52.178;4.512;2023-07-24T09:04:22;7.68;;;3.97;;
82030;SDS011;71592;52.178;4.512;2023-07-24T09:06:48;5.90;;;3.60;;
82030;SDS011;71592;52.178;4.512;2023-07-24T09:09:16;6.43;;;4.13;;
82030;SDS011;71592;52.178;4.512;2023-07-24T09:11:51;6.70;;;3.70;;
82030;SDS011;71592;52.178;4.512;2023-07-24T09:14:24;4.80;;;3.42;;
82030;SDS011;71592;52.178;4.512;2023-07-24T09:17:09;5.90;;;3.63;;
82030;SDS011;71592;52.178;4.512;2023-07-24T09:19:36;6.90;;;3.92;;
82030;SDS011;71592;52.178;4.512;2023-07-24T09:24:35;5.45;;;3.70;;
82030;SDS011;71592;52.178;4.512;2023-07-24T09:27:00;6.65;;;3.63;;
82030;SDS011;71592;52.178;4.512;2023-07-24T09:29:31;6.18;;;3.75;;
82030;SDS011;71592;52.178;4.512;2023-07-24T09:31:57;6.47;;;3.95;;
82030;SDS011;71592;52.178;4.512;2023-07-24T09:34:22;6.78;;;3.63;;
82030;SDS011;71592;52.178;4.512;2023-07-24T09:36:48;6.30;;;4.10;;
82030;SDS011;71592;52.178;4.512;2023-07-24T09:39:13;7.32;;;3.70;;
82030;SDS011;71592;52.178;4.512;2023-07-24T09:41:39;5.88;;;3.90;;
82030;SDS011;71592;52.178;4.512;2023-07-24T09:44:05;5.95;;;3.95;;
82030;SDS011;71592;52.178;4.512;2023-07-24T09:46:31;7.70;;;4.07;;
82030;SDS011;71592;52.178;4.512;2023-07-24T09:48:57;6.38;;;4.07;;
82030;SDS011;71592;52.178;4.512;2023-07-24T09:51:23;6.20;;;4.50;;
82030;SDS011;71592;52.178;4.512;2023-07-24T09:53:53;6.90;;;4.20;;
82030;SDS011;71592;52.178;4.512;2023-07-24T09:56:21;6.00;;;3.70;;
82030;SDS011;71592;52.178;4.512;2023-07-24T09:58:47;8.00;;;4.18;;
82030;SDS011;71592;52.178;4.512;2023-07-24T10:01:19;8.40;;;4.35;;
82030;SDS011;71592;52.178;4.512;2023-07-24T10:03:48;9.00;;;4.43;;
82030;SDS011;71592;52.178;4.512;2023-07-24T10:06:14;7.80;;;4.30;;
82030;SDS011;71592;52.178;4.512;2023-07-24T10:08:41;8.68;;;4.50;;
82030;SDS011;71592;52.178;4.512;2023-07-24T10:11:08;6.18;;;3.97;;
82030;SDS011;71592;52.178;4.512;2023-07-24T10:13:36;6.93;;;4.25;;
82030;SDS011;71592;52.178;4.512;2023-07-24T10:16:02;8.57;;;4.10;;
82030;SDS011;71592;52.178;4.512;2023-07-24T10:18:31;5.85;;;3.90;;
82030;SDS011;71592;52.178;4.512;2023-07-24T10:21:04;5.70;;;3.78;;
82030;SDS011;71592;52.178;4.512;2023-07-24T10:23:35;7.10;;;4.18;;
82030;SDS011;71592;52.178;4.512;2023-07-24T10:26:04;6.28;;;3.38;;
82030;SDS011;71592;52.178;4.512;2023-07-24T10:28:31;6.85;;;3.75;;
82030;SDS011;71592;52.178;4.512;2023-07-24T10:31:00;6.38;;;3.75;;
82030;SDS011;71592;52.178;4.512;2023-07-24T10:33:29;6.35;;;4.10;;
82030;SDS011;71592;52.178;4.512;2023-07-24T10:36:03;9.23;;;4.03;;
82030;SDS011;71592;52.178;4.512;2023-07-24T10:38:38;6.55;;;4.28;;
82030;SDS011;71592;52.178;4.512;2023-07-24T10:41:07;7.78;;;4.22;;
82030;SDS011;71592;52.178;4.512;2023-07-24T10:43:44;7.10;;;4.20;;
82030;SDS011;71592;52.178;4.512;2023-07-24T10:46:12;6.40;;;3.72;;
82030;SDS011;71592;52.178;4.512;2023-07-24T10:48:37;5.68;;;4.13;;
82030;SDS011;71592;52.178;4.512;2023-07-24T10:51:07;5.03;;;3.75;;
82030;SDS011;71592;52.178;4.512;2023-07-24T10:53:34;5.93;;;3.92;;
82030;SDS011;71592;52.178;4.512;2023-07-24T10:56:02;7.60;;;4.53;;
82030;SDS011;71592;52.178;4.512;2023-07-24T10:58:27;6.10;;;3.75;;
82030;SDS011;71592;52.178;4.512;2023-07-24T11:00:53;5.38;;;3.83;;
82030;SDS011;71592;52.178;4.512;2023-07-24T11:03:18;7.15;;;3.92;;
82030;SDS011;71592;52.178;4.512;2023-07-24T11:05:44;7.45;;;3.90;;
82030;SDS011;71592;52.178;4.512;2023-07-24T11:08:12;7.50;;;3.83;;
82030;SDS011;71592;52.178;4.512;2023-07-24T11:10:45;5.57;;;3.67;;
82030;SDS011;71592;52.178;4.512;2023-07-24T11:13:12;5.22;;;3.50;;
82030;SDS011;71592;52.178;4.512;2023-07-24T11:15:38;4.90;;;3.58;;
82030;SDS011;71592;52.178;4.512;2023-07-24T11:18:03;4.47;;;3.30;;
82030;SDS011;71592;52.178;4.512;2023-07-24T11:20:29;5.60;;;2.90;;
82030;SDS011;71592;52.178;4.512;2023-07-24T11:22:57;4.25;;;3.38;;
82030;SDS011;71592;52.178;4.512;2023-07-24T11:25:23;7.50;;;3.20;;
82030;SDS011;71592;52.178;4.512;2023-07-24T11:27:49;3.30;;;2.53;;
82030;SDS011;71592;52.178;4.512;2023-07-24T11:30:19;3.60;;;2.65;;
82030;SDS011;71592;52.178;4.512;2023-07-24T11:32:45;4.53;;;2.70;;
82030;SDS011;71592;52.178;4.512;2023-07-24T11:35:11;3.75;;;2.55;;
82030;SDS011;71592;52.178;4.512;2023-07-24T11:37:37;3.42;;;2.50;;
82030;SDS011;71592;52.178;4.512;2023-07-24T11:40:03;3.45;;;2.20;;
82030;SDS011;71592;52.178;4.512;2023-07-24T11:42:36;3.55;;;2.00;;
82030;SDS011;71592;52.178;4.512;2023-07-24T11:45:03;3.63;;;2.33;;
82030;SDS011;71592;52.178;4.512;2023-07-24T11:47:29;4.28;;;2.30;;
82030;SDS011;71592;52.178;4.512;2023-07-24T11:49:58;2.60;;;1.77;;
82030;SDS011;71592;52.178;4.512;2023-07-24T11:52:24;3.35;;;1.98;;
82030;SDS011;71592;52.178;4.512;2023-07-24T11:54:57;2.50;;;1.90;;
82030;SDS011;71592;52.178;4.512;2023-07-24T11:57:26;2.72;;;1.70;;
82030;SDS011;71592;52.178;4.512;2023-07-24T11:59:52;3.53;;;2.00;;
82030;SDS011;71592;52.178;4.512;2023-07-24T12:02:18;2.47;;;1.70;;
82030;SDS011;71592;52.178;4.512;2023-07-24T12:04:44;2.85;;;1.90;;
82030;SDS011;71592;52.178;4.512;2023-07-24T12:07:09;3.03;;;2.00;;
82030;SDS011;71592;52.178;4.512;2023-07-24T12:09:35;2.70;;;1.80;;
82030;SDS011;71592;52.178;4.512;2023-07-24T12:12:00;3.08;;;1.70;;
82030;SDS011;71592;52.178;4.512;2023-07-24T12:14:29;3.08;;;1.70;;
82030;SDS011;71592;52.178;4.512;2023-07-24T12:17:01;4.20;;;1.60;;
82030;SDS011;71592;52.178;4.512;2023-07-24T12:19:27;4.10;;;1.70;;
82030;SDS011;71592;52.178;4.512;2023-07-24T12:21:53;3.63;;;1.65;;
82030;SDS011;71592;52.178;4.512;2023-07-24T12:24:19;4.35;;;1.85;;
82030;SDS011;71592;52.178;4.512;2023-07-24T12:26:44;3.17;;;1.65;;
82030;SDS011;71592;52.178;4.512;2023-07-24T12:29:09;4.25;;;1.85;;
82030;SDS011;71592;52.178;4.512;2023-07-24T12:31:35;3.35;;;1.70;;
82030;SDS011;71592;52.178;4.512;2023-07-24T12:34:00;4.78;;;1.80;;
82030;SDS011;71592;52.178;4.512;2023-07-24T12:36:26;5.57;;;2.10;;
82030;SDS011;71592;52.178;4.512;2023-07-24T12:38:51;4.60;;;1.80;;
82030;SDS011;71592;52.178;4.512;2023-07-24T12:41:17;4.38;;;1.67;;
82030;SDS011;71592;52.178;4.512;2023-07-24T12:43:43;4.70;;;2.22;;
82030;SDS011;71592;52.178;4.512;2023-07-24T12:46:09;4.47;;;2.17;;
82030;SDS011;71592;52.178;4.512;2023-07-24T12:48:34;4.22;;;1.90;;
82030;SDS011;71592;52.178;4.512;2023-07-24T12:51:01;4.18;;;1.90;;
82030;SDS011;71592;52.178;4.512;2023-07-24T12:53:26;4.75;;;2.20;;
82030;SDS011;71592;52.178;4.512;2023-07-24T12:55:52;3.72;;;1.75;;
82030;SDS011;71592;52.178;4.512;2023-07-24T12:58:18;4.90;;;1.98;;
82030;SDS011;71592;52.178;4.512;2023-07-24T13:00:43;4.80;;;1.70;;
82030;SDS011;71592;52.178;4.512;2023-07-24T13:03:08;4.68;;;1.60;;
82030;SDS011;71592;52.178;4.512;2023-07-24T13:05:34;4.13;;;1.70;;
82030;SDS011;71592;52.178;4.512;2023-07-24T13:07:59;4.63;;;1.77;;
82030;SDS011;71592;52.178;4.512;2023-07-24T13:10:24;4.95;;;1.90;;
82030;SDS011;71592;52.178;4.512;2023-07-24T13:12:50;3.90;;;1.90;;
82030;SDS011;71592;52.178;4.512;2023-07-24T13:15:15;6.53;;;2.08;;
82030;SDS011;71592;52.178;4.512;2023-07-24T13:17:41;4.60;;;1.80;;
82030;SDS011;71592;52.178;4.512;2023-07-24T13:20:06;4.93;;;1.90;;
82030;SDS011;71592;52.178;4.512;2023-07-24T13:22:32;3.72;;;1.80;;
82030;SDS011;71592;52.178;4.512;2023-07-24T13:24:58;5.72;;;1.88;;
82030;SDS011;71592;52.178;4.512;2023-07-24T13:27:23;6.28;;;2.20;;
82030;SDS011;71592;52.178;4.512;2023-07-24T13:29:48;4.70;;;1.70;;
82030;SDS011;71592;52.178;4.512;2023-07-24T13:32:14;4.57;;;1.70;;
82030;SDS011;71592;52.178;4.512;2023-07-24T13:34:41;4.90;;;1.80;;
82030;SDS011;71592;52.178;4.512;2023-07-24T13:37:06;6.40;;;1.90;;
82030;SDS011;71592;52.178;4.512;2023-07-24T13:39:32;5.13;;;1.60;;
82030;SDS011;71592;52.178;4.512;2023-07-24T13:41:59;4.28;;;2.10;;
82030;SDS011;71592;52.178;4.512;2023-07-24T13:44:25;4.63;;;2.00;;
82030;SDS011;71592;52.178;4.512;2023-07-24T13:46:50;5.10;;;1.85;;
82030;SDS011;71592;52.178;4.512;2023-07-24T13:49:15;4.68;;;2.00;;
82030;SDS011;71592;52.178;4.512;2023-07-24T13:51:41;4.90;;;1.77;;
82030;SDS011;71592;52.178;4.512;2023-07-24T13:54:06;4.82;;;1.77;;
82030;SDS011;71592;52.178;4.512;2023-07-24T13:56:31;4.70;;;2.03;;
82030;SDS011;71592;52.178;4.512;2023-07-24T13:59:00;5.65;;;2.03;;
82030;SDS011;71592;52.178;4.512;2023-07-24T14:01:26;4.15;;;1.70;;
82030;SDS011;71592;52.178;4.512;2023-07-24T14:03:51;5.15;;;2.25;;
82030;SDS011;71592;52.178;4.512;2023-07-24T14:06:17;5.15;;;2.05;;
82030;SDS011;71592;52.178;4.512;2023-07-24T14:08:43;4.93;;;1.73;;
82030;SDS011;71592;52.178;4.512;2023-07-24T14:11:08;5.03;;;1.70;;
82030;SDS011;71592;52.178;4.512;2023-07-24T14:13:33;4.05;;;2.08;;
82030;SDS011;71592;52.178;4.512;2023-07-24T14:15:59;3.75;;;1.73;;
82030;SDS011;71592;52.178;4.512;2023-07-24T14:18:25;5.00;;;2.10;;
82030;SDS011;71592;52.178;4.512;2023-07-24T14:20:50;3.50;;;1.65;;
82030;SDS011;71592;52.178;4.512;2023-07-24T14:23:19;3.03;;;1.50;;
82030;SDS011;71592;52.178;4.512;2023-07-24T14:25:44;3.85;;;1.30;;
82030;SDS011;71592;52.178;4.512;2023-07-24T14:28:10;3.47;;;1.30;;
82030;SDS011;71592;52.178;4.512;2023-07-24T14:30:36;2.92;;;1.45;;
82030;SDS011;71592;52.178;4.512;2023-07-24T14:33:01;2.65;;;1.40;;
82030;SDS011;71592;52.178;4.512;2023-07-24T14:35:27;2.90;;;1.25;;
82030;SDS011;71592;52.178;4.512;2023-07-24T14:37:52;2.63;;;1.08;;
82030;SDS011;71592;52.178;4.512;2023-07-24T14:40:18;2.35;;;1.00;;
82030;SDS011;71592;52.178;4.512;2023-07-24T14:42:43;2.50;;;1.10;;
82030;SDS011;71592;52.178;4.512;2023-07-24T14:45:09;2.47;;;1.38;;